createdAt,value
2023-01-02T00:01:31.137Z,6.30
2023-01-02T00:06:34.067Z,6.25
2023-01-02T00:11:37.225Z,6.32
2023-01-02T00:16:40.266Z,6.26
2023-01-02T00:21:43.581Z,6.15
2023-01-02T00:26:49.149Z,6.03
2023-01-02T00:31:52.825Z,5.97
2023-01-02T00:36:55.850Z,5.94
2023-01-02T00:41:59.064Z,5.91
2023-01-02T00:47:02.245Z,5.90
2023-01-02T00:52:05.419Z,5.79
2023-01-02T00:57:08.564Z,5.76
2023-01-02T01:02:11.732Z,5.74
2023-01-02T01:07:14.825Z,5.71
2023-01-02T01:12:17.878Z,5.79
2023-01-02T01:17:20.963Z,5.70
2023-01-02T01:22:24.110Z,5.70
2023-01-02T01:27:28.296Z,5.66
2023-01-02T01:32:31.625Z,5.68
2023-01-02T01:37:34.711Z,5.65
2023-01-02T01:42:37.827Z,5.70
2023-01-02T01:47:40.898Z,5.67
2023-01-02T01:52:43.994Z,5.85
2023-01-02T01:57:47.083Z,5.79
2023-01-02T02:02:50.292Z,5.71
2023-01-02T02:07:53.466Z,5.65
2023-01-02T02:12:56.519Z,5.61
2023-01-02T02:17:59.660Z,5.55
2023-01-02T02:23:02.965Z,5.60
2023-01-02T02:28:06.294Z,5.58
2023-01-02T02:33:10.599Z,5.57
2023-01-02T02:38:13.913Z,5.48
2023-01-02T02:43:16.890Z,5.38
2023-01-02T02:48:20.026Z,5.36
2023-01-02T02:53:23.135Z,5.28
2023-01-02T02:58:26.327Z,5.29
2023-01-02T03:03:29.473Z,5.23
2023-01-02T03:08:33.364Z,5.20
2023-01-02T03:13:41.835Z,5.24
2023-01-02T03:18:44.809Z,5.30
2023-01-02T03:23:47.452Z,5.22
2023-01-02T03:28:50.923Z,5.29
2023-01-02T03:33:54.081Z,5.32
2023-01-02T03:38:56.771Z,5.27
2023-01-02T03:43:59.438Z,5.56
2023-01-02T03:49:02.029Z,5.49
2023-01-02T03:54:04.709Z,5.52
2023-01-02T03:59:07.386Z,5.57
2023-01-02T04:04:10.041Z,5.58
2023-01-02T04:09:12.636Z,5.50
2023-01-02T04:14:15.226Z,5.49
2023-01-02T04:19:27.167Z,5.48
2023-01-02T04:24:29.790Z,5.46
2023-01-02T04:29:32.521Z,5.42
2023-01-02T04:34:35.396Z,5.45
2023-01-02T04:39:38.090Z,5.35
2023-01-02T04:44:40.815Z,5.25
2023-01-02T04:49:43.786Z,5.13
2023-01-02T04:54:46.411Z,5.01
2023-01-02T04:59:49.355Z,4.93
2023-01-02T05:04:51.986Z,4.86
2023-01-02T05:09:54.668Z,4.80
2023-01-02T05:14:57.368Z,4.71
2023-01-02T05:20:00.046Z,4.72
2023-01-02T05:25:02.924Z,4.74
2023-01-02T05:30:05.925Z,4.73
2023-01-02T05:35:08.850Z,4.74
2023-01-02T05:40:11.539Z,4.75
2023-01-02T05:45:14.236Z,4.82
2023-01-02T05:50:16.915Z,4.93
2023-01-02T05:55:19.635Z,4.85
2023-01-02T06:00:22.578Z,4.82
2023-01-02T06:05:25.140Z,4.77
2023-01-02T06:10:27.849Z,4.69
2023-01-02T06:15:30.447Z,4.54
2023-01-02T06:20:32.997Z,4.52
2023-01-02T06:25:36.156Z,4.47
2023-01-02T06:30:38.763Z,4.44
2023-01-02T06:35:41.948Z,4.36
2023-01-02T06:40:44.579Z,4.30
2023-01-02T06:45:47.418Z,4.27
2023-01-02T06:50:50.218Z,4.20
2023-01-02T06:55:52.905Z,4.19
2023-01-02T07:00:55.576Z,4.16
2023-01-02T07:05:58.417Z,4.15
2023-01-02T07:11:01.087Z,4.20
2023-01-02T07:16:03.724Z,4.16
2023-01-02T07:21:06.385Z,4.29
2023-01-02T07:26:09.305Z,4.39
2023-01-02T07:31:15.319Z,4.55
2023-01-02T07:36:18.015Z,4.68
2023-01-02T07:41:20.765Z,4.74
2023-01-02T07:46:23.573Z,4.81
2023-01-02T07:51:27.704Z,4.88
2023-01-02T07:56:30.536Z,5.01
2023-01-02T08:01:34.687Z,5.12
2023-01-02T08:06:37.573Z,5.29
2023-01-02T08:11:40.338Z,5.50
2023-01-02T08:16:42.990Z,5.68
2023-01-02T08:21:45.644Z,5.85
2023-01-02T08:26:48.465Z,6.06
2023-01-02T08:31:51.146Z,6.12
2023-01-02T08:36:55.843Z,6.29
2023-01-02T08:41:59.317Z,6.42
2023-01-02T08:47:01.962Z,6.59
2023-01-02T08:52:05.130Z,6.88
2023-01-02T08:57:07.748Z,7.07
2023-01-02T09:02:11.022Z,7.21
2023-01-02T09:07:14.737Z,7.30
2023-01-02T09:12:17.625Z,7.38
2023-01-02T09:17:20.368Z,7.49
2023-01-02T09:22:23.018Z,7.60
2023-01-02T09:27:25.788Z,7.82
2023-01-02T09:32:28.715Z,8.03
2023-01-02T09:37:31.457Z,8.11
2023-01-02T09:42:34.163Z,8.31
2023-01-02T09:47:36.990Z,8.62
2023-01-02T09:52:39.778Z,8.84
2023-01-02T09:57:42.913Z,9.13
2023-01-02T10:02:45.875Z,9.64
2023-01-02T10:07:49.103Z,10.23
2023-01-02T10:12:52.203Z,10.80
2023-01-02T10:17:54.913Z,11.29
2023-01-02T10:22:58.116Z,11.54
2023-01-02T10:28:01.826Z,11.58
2023-01-02T10:33:04.519Z,11.83
2023-01-02T10:38:09.179Z,11.96
2023-01-02T10:43:11.967Z,12.00
2023-01-02T10:48:15.000Z,11.90
2023-01-02T10:53:19.660Z,12.24
2023-01-02T10:58:22.431Z,12.41
2023-01-02T11:03:26.212Z,12.65
2023-01-02T11:08:28.933Z,13.01
2023-01-02T11:13:31.510Z,13.31
2023-01-02T11:18:34.197Z,13.44
2023-01-02T11:23:36.907Z,13.55
2023-01-02T11:28:39.720Z,13.56
2023-01-02T11:33:42.450Z,13.69
2023-01-02T11:38:45.168Z,13.79
2023-01-02T11:43:52.733Z,13.82
2023-01-02T11:48:55.448Z,13.91
2023-01-02T11:53:58.112Z,13.87
2023-01-02T11:59:00.699Z,13.92
2023-01-02T12:04:03.644Z,14.10
2023-01-02T12:09:06.326Z,14.20
2023-01-02T12:14:09.224Z,14.26
2023-01-02T12:19:12.852Z,14.44
2023-01-02T12:24:15.468Z,14.46
2023-01-02T12:29:46.166Z,14.46
2023-01-02T12:34:43.724Z,14.46
2023-01-02T12:39:49.998Z,14.36
2023-01-02T12:44:53.077Z,14.18
2023-01-02T12:49:55.824Z,14.28
2023-01-02T12:54:58.485Z,14.36
2023-01-02T13:00:02.195Z,14.30
2023-01-02T13:05:05.304Z,14.18
2023-01-02T13:10:14.103Z,14.10
2023-01-02T13:15:16.836Z,14.09
2023-01-02T13:20:20.537Z,14.16
2023-01-02T13:25:23.213Z,14.14
2023-01-02T13:30:25.847Z,14.20
2023-01-02T13:35:28.516Z,14.15
2023-01-02T13:40:32.755Z,14.15
2023-01-02T13:45:37.637Z,14.05
2023-01-02T13:50:40.727Z,13.82
2023-01-02T13:55:43.426Z,13.75
2023-01-02T14:00:53.398Z,13.62
2023-01-02T14:05:57.382Z,13.59
2023-01-02T14:11:00.515Z,13.49
2023-01-02T14:16:03.723Z,13.41
2023-01-02T14:21:06.358Z,13.18
2023-01-02T14:26:09.098Z,13.01
2023-01-02T14:31:12.767Z,12.91
2023-01-02T14:36:15.613Z,12.74
2023-01-02T14:41:35.804Z,12.60
2023-01-02T14:46:38.840Z,12.45
2023-01-02T14:51:41.616Z,12.36
2023-01-02T14:56:44.347Z,12.18
2023-01-02T15:01:54.062Z,12.02
2023-01-02T15:06:57.148Z,11.86
2023-01-02T15:12:17.467Z,11.74
2023-01-02T15:17:21.159Z,11.67
2023-01-02T15:22:23.790Z,11.43
2023-01-02T15:27:26.518Z,11.31
2023-01-02T15:32:29.281Z,11.28
2023-01-02T15:37:32.133Z,11.21
2023-01-02T15:42:52.490Z,11.22
2023-01-02T15:47:56.289Z,11.12
2023-01-02T15:52:58.916Z,11.16
2023-01-02T15:58:06.123Z,11.01
2023-01-02T16:03:09.038Z,10.94
2023-01-02T16:08:12.024Z,10.87
2023-01-02T16:13:28.865Z,10.81
2023-01-02T16:18:32.646Z,10.81
2023-01-02T16:23:35.481Z,10.82
2023-01-02T16:28:38.172Z,10.80
2023-01-02T16:33:42.835Z,10.75
2023-01-02T16:38:46.575Z,10.73
2023-01-02T16:43:49.726Z,10.65
2023-01-02T16:48:52.819Z,10.53
2023-01-02T16:53:56.437Z,10.57
2023-01-02T16:58:59.131Z,10.48
2023-01-02T17:04:01.808Z,10.50
2023-01-02T17:09:04.445Z,10.39
2023-01-02T17:14:07.069Z,10.21
2023-01-02T17:19:09.811Z,10.12
2023-01-02T17:24:12.424Z,10.12
2023-01-02T17:29:15.546Z,10.03
2023-01-02T17:34:18.445Z,9.82
2023-01-02T17:39:21.531Z,10.00
2023-01-02T17:44:24.158Z,9.94
2023-01-02T17:49:26.993Z,9.81
2023-01-02T17:54:29.879Z,9.80
2023-01-02T17:59:32.441Z,9.98
2023-01-02T18:04:35.088Z,10.06
2023-01-02T18:09:37.781Z,10.16
2023-01-02T18:14:40.464Z,10.16
2023-01-02T18:19:43.162Z,10.22
2023-01-02T18:24:45.904Z,10.19
2023-01-02T18:29:48.605Z,10.06
2023-01-02T18:34:59.073Z,10.08
2023-01-02T18:40:02.140Z,9.95
2023-01-02T18:45:04.941Z,9.93
2023-01-02T18:50:07.519Z,9.87
2023-01-02T18:55:10.334Z,9.85
2023-01-02T19:00:13.084Z,9.93
2023-01-02T19:05:15.704Z,10.00
2023-01-02T19:10:18.333Z,9.94
2023-01-02T19:15:21.323Z,9.79
2023-01-02T19:20:24.031Z,9.82
2023-01-02T19:25:26.814Z,9.80
2023-01-02T19:30:29.534Z,9.73
2023-01-02T19:35:32.209Z,9.72
2023-01-02T19:40:34.905Z,9.70
2023-01-02T19:45:37.678Z,9.62
2023-01-02T19:50:40.337Z,9.52
2023-01-02T19:55:43.187Z,9.41
2023-01-02T20:00:45.821Z,9.46
2023-01-02T20:05:48.403Z,9.52
2023-01-02T20:10:50.997Z,9.64
2023-01-02T20:15:53.752Z,9.98
2023-01-02T20:20:56.461Z,10.00
2023-01-02T20:25:59.152Z,10.05
2023-01-02T20:31:02.059Z,9.99
2023-01-02T20:36:09.811Z,9.87
2023-01-02T20:41:15.858Z,9.74
2023-01-02T20:46:18.820Z,9.70
2023-01-02T20:51:21.869Z,9.61
2023-01-02T20:56:24.949Z,9.56
2023-01-02T21:01:27.920Z,9.52
2023-01-02T21:06:30.699Z,9.45
2023-01-02T21:11:33.237Z,9.40
2023-01-02T21:16:35.929Z,9.41
2023-01-02T21:21:38.516Z,9.53
2023-01-02T21:26:41.089Z,9.69
2023-01-02T21:31:43.765Z,9.73
2023-01-02T21:36:46.422Z,9.71
2023-01-02T21:42:08.838Z,9.65
2023-01-02T21:47:11.435Z,9.49
2023-01-02T21:52:14.070Z,9.46
2023-01-02T21:57:16.765Z,9.49
2023-01-02T22:02:26.708Z,9.46
2023-01-02T22:07:38.073Z,9.51
2023-01-02T22:12:43.436Z,9.60
2023-01-02T22:17:46.277Z,9.60
2023-01-02T22:22:49.659Z,9.63
2023-01-02T22:27:52.325Z,9.59
2023-01-02T22:32:55.271Z,9.58
2023-01-02T22:37:59.335Z,9.57
2023-01-02T22:43:04.403Z,9.52
2023-01-02T22:48:08.155Z,9.55
2023-01-02T22:53:10.850Z,9.54
2023-01-02T22:58:13.965Z,9.62
2023-01-02T23:03:16.594Z,9.63
2023-01-02T23:08:21.426Z,9.65
2023-01-02T23:13:24.051Z,9.61
2023-01-02T23:18:44.118Z,9.61
2023-01-02T23:23:46.706Z,9.62
2023-01-02T23:29:06.413Z,9.55
2023-01-02T23:34:09.938Z,9.60
2023-01-02T23:39:12.622Z,9.65
2023-01-02T23:44:15.483Z,9.74
2023-01-02T23:49:18.295Z,9.86
2023-01-02T23:54:20.902Z,9.84
2023-01-02T23:59:23.426Z,9.80
